sensor_id;sensor_type;location;lat;lon;timestamp;pressure;altitude;pressure_sealevel;temperature;humidity
10462;BME280;5278;42.656;23.374;2024-03-06T00:02:04;94384.34;;;8.78;88.38
10462;BME280;5278;42.656;23.374;2024-03-06T00:04:33;94374.81;;;8.79;89.20
10462;BME280;5278;42.656;23.374;2024-03-06T00:07:00;94391.00;;;8.81;89.10
10462;BME280;5278;42.656;23.374;2024-03-06T00:09:27;94387.41;;;8.82;89.15
10462;BME280;5278;42.656;23.374;2024-03-06T00:11:54;94382.22;;;8.82;88.67
10462;BME280;5278;42.656;23.374;2024-03-06T00:14:21;94388.00;;;8.92;88.81
10462;BME280;5278;42.656;23.374;2024-03-06T00:16:48;94380.41;;;8.90;88.93
10462;BME280;5278;42.656;23.374;2024-03-06T00:19:15;94391.59;;;8.91;88.62
10462;BME280;5278;42.656;23.374;2024-03-06T00:21:43;94384.78;;;8.90;89.12
10462;BME280;5278;42.656;23.374;2024-03-06T00:24:11;94390.81;;;8.82;88.76
10462;BME280;5278;42.656;23.374;2024-03-06T00:26:39;94343.50;;;8.57;88.79
10462;BME280;5278;42.656;23.374;2024-03-06T00:29:06;94390.59;;;8.92;88.30
10462;BME280;5278;42.656;23.374;2024-03-06T00:31:33;94389.00;;;8.91;88.36
10462;BME280;5278;42.656;23.374;2024-03-06T00:33:59;94382.06;;;8.83;88.11
10462;BME280;5278;42.656;23.374;2024-03-06T00:36:26;94359.44;;;8.77;88.30
10462;BME280;5278;42.656;23.374;2024-03-06T00:38:54;94383.84;;;8.83;88.43
10462;BME280;5278;42.656;23.374;2024-03-06T00:41:21;94385.81;;;8.81;88.77
10462;BME280;5278;42.656;23.374;2024-03-06T00:43:48;94375.31;;;8.74;88.49
10462;BME280;5278;42.656;23.374;2024-03-06T00:46:15;94233.63;;;7.43;88.60
10462;BME280;5278;42.656;23.374;2024-03-06T00:48:42;94389.19;;;8.50;89.68
10462;BME280;5278;42.656;23.374;2024-03-06T00:51:09;94389.34;;;8.49;89.14
10462;BME280;5278;42.656;23.374;2024-03-06T00:53:35;94385.31;;;8.46;89.48
10462;BME280;5278;42.656;23.374;2024-03-06T00:56:04;94384.69;;;8.36;90.12
10462;BME280;5278;42.656;23.374;2024-03-06T00:58:31;94392.16;;;8.31;90.95
10462;BME280;5278;42.656;23.374;2024-03-06T01:00:58;94293.16;;;7.74;90.73
10462;BME280;5278;42.656;23.374;2024-03-06T01:03:25;94386.97;;;8.23;91.01
10462;BME280;5278;42.656;23.374;2024-03-06T01:05:52;94394.72;;;8.23;91.37
10462;BME280;5278;42.656;23.374;2024-03-06T01:08:18;94396.19;;;8.17;91.74
10462;BME280;5278;42.656;23.374;2024-03-06T01:10:45;94406.69;;;8.24;92.03
10462;BME280;5278;42.656;23.374;2024-03-06T01:13:13;94381.66;;;8.16;91.38
10462;BME280;5278;42.656;23.374;2024-03-06T01:15:40;94399.59;;;8.26;91.39
10462;BME280;5278;42.656;23.374;2024-03-06T01:18:07;94398.44;;;8.29;91.18
10462;BME280;5278;42.656;23.374;2024-03-06T01:20:34;94393.91;;;8.22;90.98
10462;BME280;5278;42.656;23.374;2024-03-06T01:23:01;94394.09;;;8.21;91.04
10462;BME280;5278;42.656;23.374;2024-03-06T01:25:28;94402.31;;;8.25;91.30
10462;BME280;5278;42.656;23.374;2024-03-06T01:27:54;94402.34;;;8.08;92.39
10462;BME280;5278;42.656;23.374;2024-03-06T01:30:22;94404.13;;;8.08;92.49
10462;BME280;5278;42.656;23.374;2024-03-06T01:32:49;94406.88;;;8.14;92.17
10462;BME280;5278;42.656;23.374;2024-03-06T01:35:16;94397.34;;;8.15;92.07
10462;BME280;5278;42.656;23.374;2024-03-06T01:37:43;94402.53;;;8.07;92.58
10462;BME280;5278;42.656;23.374;2024-03-06T01:40:10;94405.75;;;8.09;92.75
10462;BME280;5278;42.656;23.374;2024-03-06T01:42:37;94400.72;;;8.07;92.73
10462;BME280;5278;42.656;23.374;2024-03-06T01:45:05;94397.53;;;8.05;92.53
10462;BME280;5278;42.656;23.374;2024-03-06T01:47:34;94395.09;;;8.04;92.89
10462;BME280;5278;42.656;23.374;2024-03-06T01:50:01;94389.44;;;7.92;92.65
10462;BME280;5278;42.656;23.374;2024-03-06T01:52:29;94397.66;;;8.12;92.36
10462;BME280;5278;42.656;23.374;2024-03-06T01:54:56;94399.63;;;8.10;92.73
10462;BME280;5278;42.656;23.374;2024-03-06T01:57:23;94404.63;;;8.03;92.60
10462;BME280;5278;42.656;23.374;2024-03-06T01:59:50;94395.09;;;8.04;92.99
10462;BME280;5278;42.656;23.374;2024-03-06T02:02:17;94394.47;;;9.87;100.00
10462;BME280;5278;42.656;23.374;2024-03-06T02:04:45;94305.75;;;11.29;100.00
10462;BME280;5278;42.656;23.374;2024-03-06T02:07:13;94378.78;;;13.88;93.73
10462;BME280;5278;42.656;23.374;2024-03-06T02:09:40;94382.56;;;15.15;81.46
10462;BME280;5278;42.656;23.374;2024-03-06T02:12:08;94357.47;;;16.02;70.85
10462;BME280;5278;42.656;23.374;2024-03-06T02:14:35;94385.00;;;16.60;64.54
10462;BME280;5278;42.656;23.374;2024-03-06T02:17:01;94395.34;;;15.43;60.78
10462;BME280;5278;42.656;23.374;2024-03-06T02:19:37;94392.66;;;14.34;60.65
10462;BME280;5278;42.656;23.374;2024-03-06T02:22:06;94400.41;;;13.42;63.21
10462;BME280;5278;42.656;23.374;2024-03-06T02:24:33;94387.41;;;12.54;65.87
10462;BME280;5278;42.656;23.374;2024-03-06T02:27:00;94405.22;;;11.94;68.49
10462;BME280;5278;42.656;23.374;2024-03-06T02:29:27;94412.25;;;11.37;71.61
10462;BME280;5278;42.656;23.374;2024-03-06T02:31:53;94408.25;;;10.84;73.66
10462;BME280;5278;42.656;23.374;2024-03-06T02:34:20;94425.09;;;10.44;75.86
10462;BME280;5278;42.656;23.374;2024-03-06T02:36:47;94413.28;;;10.04;77.74
10462;BME280;5278;42.656;23.374;2024-03-06T02:39:15;94423.25;;;9.77;79.39
10462;BME280;5278;42.656;23.374;2024-03-06T02:41:43;94421.50;;;9.47;80.17
10462;BME280;5278;42.656;23.374;2024-03-06T02:44:09;94393.00;;;9.01;82.17
10462;BME280;5278;42.656;23.374;2024-03-06T02:46:36;94427.81;;;8.99;82.85
10462;BME280;5278;42.656;23.374;2024-03-06T02:49:03;94420.00;;;8.76;82.90
10462;BME280;5278;42.656;23.374;2024-03-06T02:51:31;94415.09;;;8.34;84.87
10462;BME280;5278;42.656;23.374;2024-03-06T02:53:57;94425.28;;;8.28;85.69
10462;BME280;5278;42.656;23.374;2024-03-06T02:56:25;94409.97;;;8.10;86.97
10462;BME280;5278;42.656;23.374;2024-03-06T02:58:52;94420.97;;;7.96;87.40
10462;BME280;5278;42.656;23.374;2024-03-06T03:01:20;94410.78;;;7.78;88.19
10462;BME280;5278;42.656;23.374;2024-03-06T03:03:47;94427.59;;;7.82;88.55
10462;BME280;5278;42.656;23.374;2024-03-06T03:06:14;94434.72;;;7.64;88.90
10462;BME280;5278;42.656;23.374;2024-03-06T03:08:40;94432.28;;;7.62;89.37
10462;BME280;5278;42.656;23.374;2024-03-06T03:11:07;94448.59;;;7.63;90.00
10462;BME280;5278;42.656;23.374;2024-03-06T03:13:36;94433.09;;;7.63;90.15
10462;BME280;5278;42.656;23.374;2024-03-06T03:16:04;94439.38;;;7.52;90.49
10462;BME280;5278;42.656;23.374;2024-03-06T03:18:31;94429.69;;;7.38;89.93
10462;BME280;5278;42.656;23.374;2024-03-06T03:20:57;94440.34;;;7.35;90.29
10462;BME280;5278;42.656;23.374;2024-03-06T03:23:24;94447.44;;;7.33;90.96
10462;BME280;5278;42.656;23.374;2024-03-06T03:25:51;94446.63;;;7.24;91.00
10462;BME280;5278;42.656;23.374;2024-03-06T03:28:17;94446.78;;;7.15;91.75
10462;BME280;5278;42.656;23.374;2024-03-06T03:30:46;94446.91;;;7.05;92.21
10462;BME280;5278;42.656;23.374;2024-03-06T03:33:12;94440.59;;;7.00;91.98
10462;BME280;5278;42.656;23.374;2024-03-06T03:35:39;94453.22;;;7.11;92.58
10462;BME280;5278;42.656;23.374;2024-03-06T03:38:06;94451.75;;;7.00;92.91
10462;BME280;5278;42.656;23.374;2024-03-06T03:40:32;94452.22;;;7.04;92.81
10462;BME280;5278;42.656;23.374;2024-03-06T03:42:59;94447.06;;;7.04;92.87
10462;BME280;5278;42.656;23.374;2024-03-06T03:45:31;94417.00;;;6.86;92.50
10462;BME280;5278;42.656;23.374;2024-03-06T03:48:00;94443.31;;;6.98;92.90
10462;BME280;5278;42.656;23.374;2024-03-06T03:50:28;94403.56;;;6.67;93.26
10462;BME280;5278;42.656;23.374;2024-03-06T03:52:54;94456.09;;;7.00;93.32
10462;BME280;5278;42.656;23.374;2024-03-06T03:55:23;94460.16;;;7.02;92.89
10462;BME280;5278;42.656;23.374;2024-03-06T03:57:51;94458.81;;;6.98;93.18
10462;BME280;5278;42.656;23.374;2024-03-06T04:00:18;94458.66;;;7.00;92.97
10462;BME280;5278;42.656;23.374;2024-03-06T04:02:45;94456.41;;;6.97;92.94
10462;BME280;5278;42.656;23.374;2024-03-06T04:05:13;94450.50;;;6.70;93.38
10462;BME280;5278;42.656;23.374;2024-03-06T04:07:40;94467.03;;;6.85;93.76
10462;BME280;5278;42.656;23.374;2024-03-06T04:10:08;94471.66;;;6.74;93.89
10462;BME280;5278;42.656;23.374;2024-03-06T04:12:37;94475.53;;;6.78;94.09
10462;BME280;5278;42.656;23.374;2024-03-06T04:15:05;94468.91;;;6.75;94.50
10462;BME280;5278;42.656;23.374;2024-03-06T04:17:32;94475.56;;;6.86;94.41
10462;BME280;5278;42.656;23.374;2024-03-06T04:19:58;94484.63;;;6.90;94.31
10462;BME280;5278;42.656;23.374;2024-03-06T04:22:26;94486.88;;;6.93;94.04
10462;BME280;5278;42.656;23.374;2024-03-06T04:24:54;94491.56;;;6.89;93.67
10462;BME280;5278;42.656;23.374;2024-03-06T04:27:23;94484.53;;;6.74;94.22
10462;BME280;5278;42.656;23.374;2024-03-06T04:29:50;94491.22;;;6.84;94.27
10462;BME280;5278;42.656;23.374;2024-03-06T04:32:17;94492.38;;;6.90;94.06
10462;BME280;5278;42.656;23.374;2024-03-06T04:34:44;94483.34;;;6.94;93.79
10462;BME280;5278;42.656;23.374;2024-03-06T04:37:11;94484.16;;;6.95;94.02
10462;BME280;5278;42.656;23.374;2024-03-06T04:39:39;94483.69;;;6.99;93.57
10462;BME280;5278;42.656;23.374;2024-03-06T04:42:06;94493.81;;;6.92;93.31
10462;BME280;5278;42.656;23.374;2024-03-06T04:44:33;94485.91;;;6.94;93.02
10462;BME280;5278;42.656;23.374;2024-03-06T04:47:00;94498.03;;;6.93;92.90
10462;BME280;5278;42.656;23.374;2024-03-06T04:49:27;94471.97;;;6.79;92.94
10462;BME280;5278;42.656;23.374;2024-03-06T04:51:53;94503.38;;;7.00;93.65
10462;BME280;5278;42.656;23.374;2024-03-06T04:54:20;94492.38;;;6.90;93.80
10462;BME280;5278;42.656;23.374;2024-03-06T04:56:48;94503.19;;;6.93;92.86
10462;BME280;5278;42.656;23.374;2024-03-06T04:59:15;94500.59;;;6.93;92.81
10462;BME280;5278;42.656;23.374;2024-03-06T05:01:42;94504.66;;;6.96;92.71
10462;BME280;5278;42.656;23.374;2024-03-06T05:04:09;94508.34;;;6.93;92.54
10462;BME280;5278;42.656;23.374;2024-03-06T05:06:35;94509.31;;;6.92;92.78
10462;BME280;5278;42.656;23.374;2024-03-06T05:09:02;94512.41;;;6.96;92.92
10462;BME280;5278;42.656;23.374;2024-03-06T05:11:29;94517.06;;;6.92;92.83
10462;BME280;5278;42.656;23.374;2024-03-06T05:13:59;94515.34;;;7.01;92.38
10462;BME280;5278;42.656;23.374;2024-03-06T05:16:26;94523.44;;;7.06;92.16
10462;BME280;5278;42.656;23.374;2024-03-06T05:18:53;94515.50;;;7.08;91.92
10462;BME280;5278;42.656;23.374;2024-03-06T05:21:20;94521.22;;;7.19;91.37
10462;BME280;5278;42.656;23.374;2024-03-06T05:23:47;94509.97;;;7.37;91.78
10462;BME280;5278;42.656;23.374;2024-03-06T05:26:15;94515.34;;;7.59;91.26
10462;BME280;5278;42.656;23.374;2024-03-06T05:28:41;94462.66;;;7.52;90.92
10462;BME280;5278;42.656;23.374;2024-03-06T05:31:17;94512.00;;;8.15;90.02
10462;BME280;5278;42.656;23.374;2024-03-06T05:33:47;94515.72;;;8.45;88.83
10462;BME280;5278;42.656;23.374;2024-03-06T05:36:14;94516.44;;;8.78;87.08
10462;BME280;5278;42.656;23.374;2024-03-06T05:38:40;94515.91;;;8.99;85.47
10462;BME280;5278;42.656;23.374;2024-03-06T05:41:08;94522.22;;;9.35;83.05
10462;BME280;5278;42.656;23.374;2024-03-06T05:43:35;94524.91;;;9.50;82.24
10462;BME280;5278;42.656;23.374;2024-03-06T05:46:01;94535.22;;;9.66;81.75
10462;BME280;5278;42.656;23.374;2024-03-06T05:48:30;94526.72;;;9.72;80.81
10462;BME280;5278;42.656;23.374;2024-03-06T05:50:58;94545.22;;;9.69;80.27
10462;BME280;5278;42.656;23.374;2024-03-06T05:53:25;94523.78;;;9.98;79.12
10462;BME280;5278;42.656;23.374;2024-03-06T05:55:52;94534.75;;;10.08;78.05
10462;BME280;5278;42.656;23.374;2024-03-06T05:58:20;94541.28;;;10.04;77.21
10462;BME280;5278;42.656;23.374;2024-03-06T06:00:47;94534.84;;;9.92;76.87
10462;BME280;5278;42.656;23.374;2024-03-06T06:03:14;94542.25;;;9.80;77.22
10462;BME280;5278;42.656;23.374;2024-03-06T06:05:43;94539.38;;;9.67;77.72
10462;BME280;5278;42.656;23.374;2024-03-06T06:08:09;94543.16;;;9.57;78.97
10462;BME280;5278;42.656;23.374;2024-03-06T06:10:36;94545.09;;;9.63;79.20
10462;BME280;5278;42.656;23.374;2024-03-06T06:13:03;94492.03;;;9.42;79.98
10462;BME280;5278;42.656;23.374;2024-03-06T06:15:30;94543.34;;;9.86;79.74
10462;BME280;5278;42.656;23.374;2024-03-06T06:17:57;94546.41;;;9.89;78.84
10462;BME280;5278;42.656;23.374;2024-03-06T06:20:24;94554.41;;;10.03;78.74
10462;BME280;5278;42.656;23.374;2024-03-06T06:22:52;94548.47;;;9.94;77.75
10462;BME280;5278;42.656;23.374;2024-03-06T06:25:19;94546.00;;;10.01;77.97
10462;BME280;5278;42.656;23.374;2024-03-06T06:27:46;94532.94;;;10.17;78.67
10462;BME280;5278;42.656;23.374;2024-03-06T06:30:15;94523.75;;;10.29;77.25
10462;BME280;5278;42.656;23.374;2024-03-06T06:32:42;94550.25;;;10.76;75.57
10462;BME280;5278;42.656;23.374;2024-03-06T06:35:09;94544.84;;;11.15;72.70
10462;BME280;5278;42.656;23.374;2024-03-06T06:37:37;94546.41;;;11.46;70.55
10462;BME280;5278;42.656;23.374;2024-03-06T06:40:06;94545.28;;;11.84;68.55
10462;BME280;5278;42.656;23.374;2024-03-06T06:42:34;94541.41;;;12.16;67.54
10462;BME280;5278;42.656;23.374;2024-03-06T06:45:01;94532.94;;;12.35;66.12
10462;BME280;5278;42.656;23.374;2024-03-06T06:47:28;94534.78;;;12.35;65.27
10462;BME280;5278;42.656;23.374;2024-03-06T06:49:55;94526.31;;;12.54;65.15
10462;BME280;5278;42.656;23.374;2024-03-06T06:52:21;94540.56;;;12.86;64.08
10462;BME280;5278;42.656;23.374;2024-03-06T06:54:48;94539.59;;;13.15;62.91
10462;BME280;5278;42.656;23.374;2024-03-06T06:57:18;94545.28;;;13.25;62.25
10462;BME280;5278;42.656;23.374;2024-03-06T06:59:45;94543.00;;;13.56;60.74
10462;BME280;5278;42.656;23.374;2024-03-06T07:02:12;94539.75;;;14.02;59.13
10462;BME280;5278;42.656;23.374;2024-03-06T07:04:38;94540.44;;;14.50;56.98
10462;BME280;5278;42.656;23.374;2024-03-06T07:07:05;94538.44;;;14.72;56.39
10462;BME280;5278;42.656;23.374;2024-03-06T07:09:32;94536.13;;;15.34;54.78
10462;BME280;5278;42.656;23.374;2024-03-06T07:11:59;94496.53;;;15.75;52.27
10462;BME280;5278;42.656;23.374;2024-03-06T07:14:27;94517.13;;;16.66;50.23
10462;BME280;5278;42.656;23.374;2024-03-06T07:16:54;94525.72;;;17.41;48.39
10462;BME280;5278;42.656;23.374;2024-03-06T07:19:20;94519.34;;;18.03;46.08
10462;BME280;5278;42.656;23.374;2024-03-06T07:21:47;94514.50;;;18.60;43.81
10462;BME280;5278;42.656;23.374;2024-03-06T07:24:14;94510.28;;;18.93;42.32
10462;BME280;5278;42.656;23.374;2024-03-06T07:26:40;94519.56;;;19.31;41.55
10462;BME280;5278;42.656;23.374;2024-03-06T07:29:07;94518.53;;;19.55;40.88
10462;BME280;5278;42.656;23.374;2024-03-06T07:31:41;94517.47;;;19.68;40.30
10462;BME280;5278;42.656;23.374;2024-03-06T07:34:09;94516.88;;;19.77;39.98
10462;BME280;5278;42.656;23.374;2024-03-06T07:36:36;94515.22;;;20.00;39.55
10462;BME280;5278;42.656;23.374;2024-03-06T07:39:03;94512.84;;;20.15;39.17
10462;BME280;5278;42.656;23.374;2024-03-06T07:41:30;94513.34;;;20.40;38.42
10462;BME280;5278;42.656;23.374;2024-03-06T07:43:58;94513.78;;;20.66;37.83
10462;BME280;5278;42.656;23.374;2024-03-06T07:46:24;94507.13;;;20.96;36.81
10462;BME280;5278;42.656;23.374;2024-03-06T07:48:53;94515.69;;;21.20;35.95
10462;BME280;5278;42.656;23.374;2024-03-06T07:51:20;94467.84;;;20.67;36.14
10462;BME280;5278;42.656;23.374;2024-03-06T07:53:47;94506.56;;;21.11;36.41
10462;BME280;5278;42.656;23.374;2024-03-06T07:56:15;94514.28;;;21.73;35.23
10462;BME280;5278;42.656;23.374;2024-03-06T07:58:42;94501.72;;;22.28;34.46
10462;BME280;5278;42.656;23.374;2024-03-06T08:01:09;94512.78;;;22.79;33.56
10462;BME280;5278;42.656;23.374;2024-03-06T08:03:38;94504.59;;;23.17;32.66
10462;BME280;5278;42.656;23.374;2024-03-06T08:06:07;94504.94;;;23.73;32.14
10462;BME280;5278;42.656;23.374;2024-03-06T08:08:34;94512.19;;;23.98;31.26
10462;BME280;5278;42.656;23.374;2024-03-06T08:11:01;94511.88;;;23.84;31.79
10462;BME280;5278;42.656;23.374;2024-03-06T08:13:28;94515.13;;;24.01;31.24
10462;BME280;5278;42.656;23.374;2024-03-06T08:15:55;94507.97;;;24.07;31.23
10462;BME280;5278;42.656;23.374;2024-03-06T08:18:22;94512.94;;;24.61;30.47
10462;BME280;5278;42.656;23.374;2024-03-06T08:20:48;94506.28;;;25.34;29.62
10462;BME280;5278;42.656;23.374;2024-03-06T08:23:16;94508.25;;;25.98;28.74
10462;BME280;5278;42.656;23.374;2024-03-06T08:25:43;94506.94;;;26.93;31.60
10462;BME280;5278;42.656;23.374;2024-03-06T08:28:10;94500.94;;;27.88;29.03
10462;BME280;5278;42.656;23.374;2024-03-06T08:30:37;94499.25;;;28.58;27.25
10462;BME280;5278;42.656;23.374;2024-03-06T08:33:04;94493.75;;;29.20;25.57
10462;BME280;5278;42.656;23.374;2024-03-06T08:35:31;94489.50;;;29.78;24.97
10462;BME280;5278;42.656;23.374;2024-03-06T08:37:57;94446.84;;;29.68;24.24
10462;BME280;5278;42.656;23.374;2024-03-06T08:40:26;94488.06;;;30.49;23.38
10462;BME280;5278;42.656;23.374;2024-03-06T08:42:53;94488.31;;;30.97;23.05
10462;BME280;5278;42.656;23.374;2024-03-06T08:45:20;94488.09;;;31.07;22.72
10462;BME280;5278;42.656;23.374;2024-03-06T08:47:48;94487.91;;;31.57;22.11
10462;BME280;5278;42.656;23.374;2024-03-06T08:50:15;94492.63;;;31.91;21.73
10462;BME280;5278;42.656;23.374;2024-03-06T08:52:42;94488.88;;;32.09;21.38
10462;BME280;5278;42.656;23.374;2024-03-06T08:55:09;94497.03;;;32.26;21.02
10462;BME280;5278;42.656;23.374;2024-03-06T08:57:38;94487.72;;;32.41;20.76
10462;BME280;5278;42.656;23.374;2024-03-06T09:00:07;94487.28;;;32.47;20.47
10462;BME280;5278;42.656;23.374;2024-03-06T09:02:36;94432.53;;;32.04;20.56
10462;BME280;5278;42.656;23.374;2024-03-06T09:05:04;94491.38;;;32.36;20.38
10462;BME280;5278;42.656;23.374;2024-03-06T09:07:31;94494.81;;;32.28;19.95
10462;BME280;5278;42.656;23.374;2024-03-06T09:10:03;94489.13;;;32.21;20.36
10462;BME280;5278;42.656;23.374;2024-03-06T09:12:31;94489.94;;;31.91;20.60
10462;BME280;5278;42.656;23.374;2024-03-06T09:14:59;94492.75;;;31.24;20.84
10462;BME280;5278;42.656;23.374;2024-03-06T09:17:26;94496.66;;;30.96;21.34
10462;BME280;5278;42.656;23.374;2024-03-06T09:19:53;94494.25;;;31.08;21.68
10462;BME280;5278;42.656;23.374;2024-03-06T09:22:20;94492.09;;;31.72;20.71
10462;BME280;5278;42.656;23.374;2024-03-06T09:24:47;94485.06;;;31.93;20.65
10462;BME280;5278;42.656;23.374;2024-03-06T09:27:14;94485.72;;;32.07;20.58
10462;BME280;5278;42.656;23.374;2024-03-06T09:29:41;94486.56;;;32.16;20.07
10462;BME280;5278;42.656;23.374;2024-03-06T09:32:09;94489.13;;;32.38;20.00
10462;BME280;5278;42.656;23.374;2024-03-06T09:34:38;94486.34;;;32.78;19.53
10462;BME280;5278;42.656;23.374;2024-03-06T09:37:05;94463.50;;;32.50;19.82
10462;BME280;5278;42.656;23.374;2024-03-06T09:39:31;94482.50;;;32.27;19.91
10462;BME280;5278;42.656;23.374;2024-03-06T09:41:59;94480.03;;;32.09;20.18
10462;BME280;5278;42.656;23.374;2024-03-06T09:44:27;94466.84;;;32.64;19.80
10462;BME280;5278;42.656;23.374;2024-03-06T09:46:54;94470.50;;;33.02;19.67
10462;BME280;5278;42.656;23.374;2024-03-06T09:49:25;94469.88;;;32.71;19.62
10462;BME280;5278;42.656;23.374;2024-03-06T09:51:53;94467.97;;;32.80;19.80
10462;BME280;5278;42.656;23.374;2024-03-06T09:54:21;94463.06;;;33.16;19.29
10462;BME280;5278;42.656;23.374;2024-03-06T09:56:51;94458.66;;;33.50;18.65
10462;BME280;5278;42.656;23.374;2024-03-06T09:59:18;94414.97;;;33.36;18.62
10462;BME280;5278;42.656;23.374;2024-03-06T10:01:49;94459.47;;;33.88;18.61
10462;BME280;5278;42.656;23.374;2024-03-06T10:04:20;94461.63;;;34.03;18.05
10462;BME280;5278;42.656;23.374;2024-03-06T10:06:49;94451.38;;;34.26;18.22
10462;BME280;5278;42.656;23.374;2024-03-06T10:09:19;94446.47;;;33.90;18.20
10462;BME280;5278;42.656;23.374;2024-03-06T10:11:46;94452.53;;;33.87;17.88
10462;BME280;5278;42.656;23.374;2024-03-06T10:14:13;94436.66;;;33.86;18.40
10462;BME280;5278;42.656;23.374;2024-03-06T10:16:52;94432.19;;;34.19;18.14
10462;BME280;5278;42.656;23.374;2024-03-06T10:19:19;94435.00;;;34.02;17.72
10462;BME280;5278;42.656;23.374;2024-03-06T10:21:48;94419.81;;;33.89;18.04
10462;BME280;5278;42.656;23.374;2024-03-06T10:24:18;94357.94;;;33.54;17.54
10462;BME280;5278;42.656;23.374;2024-03-06T10:26:45;94431.16;;;34.03;17.46
10462;BME280;5278;42.656;23.374;2024-03-06T10:29:15;94421.53;;;33.55;17.78
10462;BME280;5278;42.656;23.374;2024-03-06T10:31:47;94431.81;;;33.70;18.14
10462;BME280;5278;42.656;23.374;2024-03-06T10:34:14;94432.28;;;33.64;17.92
10462;BME280;5278;42.656;23.374;2024-03-06T10:36:42;94424.19;;;33.72;17.48
10462;BME280;5278;42.656;23.374;2024-03-06T10:39:11;94430.84;;;33.66;18.05
10462;BME280;5278;42.656;23.374;2024-03-06T10:41:40;94404.69;;;33.67;18.13
10462;BME280;5278;42.656;23.374;2024-03-06T10:44:09;94410.50;;;33.78;18.14
10462;BME280;5278;42.656;23.374;2024-03-06T10:46:39;94409.50;;;33.91;17.79
10462;BME280;5278;42.656;23.374;2024-03-06T10:49:08;94393.41;;;33.73;17.64
10462;BME280;5278;42.656;23.374;2024-03-06T10:51:37;94407.69;;;33.65;17.76
10462;BME280;5278;42.656;23.374;2024-03-06T10:54:07;94396.66;;;33.88;17.85
10462;BME280;5278;42.656;23.374;2024-03-06T10:56:38;94397.97;;;34.02;17.19
10462;BME280;5278;42.656;23.374;2024-03-06T10:59:10;94371.78;;;33.82;17.27
10462;BME280;5278;42.656;23.374;2024-03-06T11:01:39;94390.69;;;33.73;17.39
10462;BME280;5278;42.656;23.374;2024-03-06T11:04:05;94380.94;;;33.90;17.34
10462;BME280;5278;42.656;23.374;2024-03-06T11:06:32;94376.41;;;33.73;17.23
10462;BME280;5278;42.656;23.374;2024-03-06T11:09:00;94369.28;;;33.77;17.00
10462;BME280;5278;42.656;23.374;2024-03-06T11:11:27;94372.22;;;33.55;17.25
10462;BME280;5278;42.656;23.374;2024-03-06T11:13:59;94358.81;;;33.76;17.17
10462;BME280;5278;42.656;23.374;2024-03-06T11:16:28;94360.91;;;33.70;17.36
10462;BME280;5278;42.656;23.374;2024-03-06T11:19:05;94360.81;;;33.87;17.34
10462;BME280;5278;42.656;23.374;2024-03-06T11:21:33;94343.59;;;34.21;16.69
10462;BME280;5278;42.656;23.374;2024-03-06T11:24:17;94352.78;;;33.99;17.54
10462;BME280;5278;42.656;23.374;2024-03-06T11:26:43;94348.94;;;34.30;17.25
10462;BME280;5278;42.656;23.374;2024-03-06T11:29:15;94349.22;;;33.87;17.18
10462;BME280;5278;42.656;23.374;2024-03-06T11:32:05;94344.97;;;33.48;17.00
10462;BME280;5278;42.656;23.374;2024-03-06T11:34:35;94344.22;;;33.47;16.92
10462;BME280;5278;42.656;23.374;2024-03-06T11:37:04;94331.47;;;33.27;17.42
10462;BME280;5278;42.656;23.374;2024-03-06T11:39:35;94331.13;;;32.82;17.41
10462;BME280;5278;42.656;23.374;2024-03-06T11:42:02;94339.09;;;33.08;17.26
10462;BME280;5278;42.656;23.374;2024-03-06T11:44:32;94340.16;;;32.69;17.75
10462;BME280;5278;42.656;23.374;2024-03-06T11:46:59;94270.22;;;32.09;17.82
10462;BME280;5278;42.656;23.374;2024-03-06T11:49:28;94328.78;;;32.72;17.41
10462;BME280;5278;42.656;23.374;2024-03-06T11:51:57;94328.44;;;32.56;17.16
10462;BME280;5278;42.656;23.374;2024-03-06T11:54:24;94327.38;;;32.14;17.24
10462;BME280;5278;42.656;23.374;2024-03-06T11:56:52;94325.44;;;31.80;17.84
10462;BME280;5278;42.656;23.374;2024-03-06T11:59:21;94316.94;;;31.39;18.52
10462;BME280;5278;42.656;23.374;2024-03-06T12:01:49;94334.41;;;29.99;19.26
10462;BME280;5278;42.656;23.374;2024-03-06T12:04:16;94297.63;;;29.28;19.79
10462;BME280;5278;42.656;23.374;2024-03-06T12:06:44;94319.81;;;29.56;20.19
10462;BME280;5278;42.656;23.374;2024-03-06T12:09:11;94311.41;;;28.94;20.38
10462;BME280;5278;42.656;23.374;2024-03-06T12:11:38;94324.31;;;27.90;21.31
10462;BME280;5278;42.656;23.374;2024-03-06T12:14:04;94310.16;;;26.80;21.98
10462;BME280;5278;42.656;23.374;2024-03-06T12:16:31;94328.41;;;25.66;23.13
10462;BME280;5278;42.656;23.374;2024-03-06T12:18:59;94323.38;;;24.85;23.97
10462;BME280;5278;42.656;23.374;2024-03-06T12:21:31;94320.25;;;24.13;25.26
10462;BME280;5278;42.656;23.374;2024-03-06T12:24:04;94320.22;;;24.73;24.68
10462;BME280;5278;42.656;23.374;2024-03-06T12:26:31;94319.50;;;25.32;23.99
10462;BME280;5278;42.656;23.374;2024-03-06T12:29:05;94318.97;;;24.46;24.50
10462;BME280;5278;42.656;23.374;2024-03-06T12:31:33;94313.09;;;23.88;25.39
10462;BME280;5278;42.656;23.374;2024-03-06T12:34:02;94317.31;;;23.64;25.81
10462;BME280;5278;42.656;23.374;2024-03-06T12:36:29;94268.13;;;23.26;25.85
10462;BME280;5278;42.656;23.374;2024-03-06T12:38:58;94281.81;;;22.97;26.56
10462;BME280;5278;42.656;23.374;2024-03-06T12:41:25;94319.09;;;22.76;27.04
10462;BME280;5278;42.656;23.374;2024-03-06T12:43:53;94314.69;;;22.17;27.56
10462;BME280;5278;42.656;23.374;2024-03-06T12:46:21;94324.03;;;21.66;28.48
10462;BME280;5278;42.656;23.374;2024-03-06T12:48:47;94327.75;;;20.56;32.58
10462;BME280;5278;42.656;23.374;2024-03-06T12:51:16;94329.28;;;19.86;34.78
10462;BME280;5278;42.656;23.374;2024-03-06T12:53:42;94334.16;;;19.49;36.57
10462;BME280;5278;42.656;23.374;2024-03-06T12:56:09;94326.34;;;19.25;37.38
10462;BME280;5278;42.656;23.374;2024-03-06T12:58:36;94329.19;;;18.96;38.09
10462;BME280;5278;42.656;23.374;2024-03-06T13:01:03;94334.16;;;18.69;38.83
10462;BME280;5278;42.656;23.374;2024-03-06T13:03:30;94332.22;;;18.18;39.76
10462;BME280;5278;42.656;23.374;2024-03-06T13:05:57;94332.63;;;17.50;41.23
10462;BME280;5278;42.656;23.374;2024-03-06T13:08:26;94318.53;;;17.33;41.78